Time;durP1;ratioP1;P1;durP2;ratioP2;P2;SDS_P1;SDS_P2;PMS_P1;PMS_P2;Temp;Humidity;BMP_temperature;BMP_pressure;BME280_temperature;BME280_humidity;BME280_pressure;Samples;Min_cycle;Max_cycle;Signal;HPM_P1;HPM_P2
2021/03/03 00:01:33;;;;;;;56.80;27.42;;;;;;;1.48;77.24;101896.30;1715370;83;25866;-61
2021/03/03 00:04:00;;;;;;;56.00;25.77;;;;;;;1.50;77.18;101897.43;1715247;83;25758;-61
2021/03/03 00:06:27;;;;;;;56.95;26.80;;;;;;;1.50;77.04;101905.44;1715352;83;25751;-61
2021/03/03 00:08:53;;;;;;;55.52;26.30;;;;;;;1.51;77.00;101902.24;1715266;83;25736;-61
2021/03/03 00:11:20;;;;;;;56.63;26.62;;;;;;;1.52;76.98;101902.56;1714989;83;25678;-61
2021/03/03 00:13:47;;;;;;;57.45;26.62;;;;;;;1.54;76.93;101894.64;1715297;83;25780;-61
2021/03/03 00:16:15;;;;;;;53.58;26.57;;;;;;;1.58;76.96;101893.18;1715167;83;25800;-61
2021/03/03 00:18:42;;;;;;;50.73;25.50;;;;;;;1.62;76.92;101893.61;1715342;83;25668;-62
2021/03/03 00:21:10;;;;;;;54.05;26.17;;;;;;;1.63;76.86;101886.70;1715194;83;25624;-62
2021/03/03 00:23:37;;;;;;;53.10;25.10;;;;;;;1.66;76.83;101894.81;1715420;83;25674;-61
2021/03/03 00:26:04;;;;;;;49.27;24.72;;;;;;;1.66;76.70;101896.15;1715367;83;26758;-62
2021/03/03 00:28:31;;;;;;;52.25;25.80;;;;;;;1.70;76.76;101899.22;1715235;83;25748;-61
2021/03/03 00:30:58;;;;;;;55.10;24.70;;;;;;;1.70;76.67;101896.55;1715189;83;25729;-62
2021/03/03 00:33:25;;;;;;;55.10;26.27;;;;;;;1.70;76.57;101894.69;1715289;83;26273;-62
2021/03/03 00:35:52;;;;;;;47.08;24.00;;;;;;;1.70;76.62;101896.02;1715303;83;25638;-62
2021/03/03 00:38:19;;;;;;;49.55;25.17;;;;;;;1.70;76.56;101894.69;1715265;83;27040;-62
2021/03/03 00:40:46;;;;;;;50.83;25.65;;;;;;;1.71;76.43;101900.86;1714952;83;25778;-62
2021/03/03 00:43:13;;;;;;;46.98;24.87;;;;;;;1.71;76.42;101903.53;1715170;83;25689;-62
2021/03/03 00:45:40;;;;;;;48.45;23.35;;;;;;;1.71;76.47;101899.00;1715218;83;25702;-62
2021/03/03 00:48:08;;;;;;;47.30;23.18;;;;;;;1.74;76.50;101899.09;1715263;83;25688;-62
2021/03/03 00:50:35;;;;;;;46.33;22.55;;;;;;;1.73;76.43;101896.12;1715091;83;26618;-62
2021/03/03 00:53:02;;;;;;;47.50;23.35;;;;;;;1.74;76.43;101894.59;1715276;83;25789;-62
2021/03/03 00:55:29;;;;;;;46.02;23.60;;;;;;;1.72;76.22;101891.32;1715228;83;25686;-61
2021/03/03 00:57:56;;;;;;;47.88;23.22;;;;;;;1.69;76.14;101893.06;1715256;83;25649;-61
2021/03/03 01:00:25;;;;;;;46.13;23.52;;;;;;;1.69;76.20;101885.06;1715202;83;26378;-61
2021/03/03 01:02:52;;;;;;;44.03;21.70;;;;;;;1.70;76.27;101884.54;1715319;83;26653;-62
2021/03/03 01:05:19;;;;;;;50.75;25.10;;;;;;;1.72;76.34;101877.98;1714225;83;25862;-62
2021/03/03 01:07:47;;;;;;;49.33;26.17;;;;;;;1.72;76.30;101875.80;1715125;83;25844;-62
2021/03/03 01:10:14;;;;;;;52.20;25.90;;;;;;;1.69;76.24;101873.06;1715167;83;25740;-62
2021/03/03 01:12:41;;;;;;;52.20;26.48;;;;;;;1.64;76.28;101871.02;1715349;83;25936;-62
2021/03/03 01:15:11;;;;;;;48.25;25.30;;;;;;;1.60;76.22;101877.81;1715052;83;27658;-62
2021/03/03 01:17:38;;;;;;;52.83;24.10;;;;;;;1.57;76.34;101876.89;1714917;83;25714;-62
2021/03/03 01:20:07;;;;;;;44.38;23.50;;;;;;;1.53;76.39;101880.98;1715378;83;25680;-62
2021/03/03 01:22:34;;;;;;;50.93;24.63;;;;;;;1.48;76.40;101878.13;1715498;83;25734;-63
2021/03/03 01:25:01;;;;;;;45.43;22.80;;;;;;;1.46;76.38;101878.37;1715234;83;25663;-63
2021/03/03 01:27:28;;;;;;;53.33;26.48;;;;;;;1.41;76.38;101888.81;1715276;83;26182;-63
2021/03/03 01:29:54;;;;;;;53.68;24.67;;;;;;;1.38;76.51;101893.25;1715248;83;25810;-62
2021/03/03 06:14:16;;;;;;;46.30;18.17;;;;;;;-0.46;80.88;101798.63;1682143;84;25855;-66
2021/03/03 06:16:45;;;;;;;46.37;18.92;;;;;;;-0.49;80.88;101800.37;1655908;86;25707;-63
2021/03/03 06:19:13;;;;;;;48.70;19.12;;;;;;;-0.52;80.86;101792.78;1655721;86;26965;-65
2021/03/03 06:21:40;;;;;;;56.37;19.67;;;;;;;-0.53;80.96;101795.93;1655468;86;25819;-62
2021/03/03 06:24:12;;;;;;;53.63;21.90;;;;;;;-0.57;80.96;101791.52;1655920;86;25775;-62
2021/03/03 06:27:02;;;;;;;50.80;20.82;;;;;;;-0.57;81.22;101786.20;1655764;86;25620;-63
2021/03/03 06:29:29;;;;;;;53.25;20.85;;;;;;;-0.52;81.45;101790.94;1656492;86;25641;-63
2021/03/03 06:32:02;;;;;;;53.35;21.42;;;;;;;-0.45;81.81;101777.67;1656296;86;26680;-64
2021/03/03 06:34:29;;;;;;;55.33;22.90;;;;;;;-0.36;82.02;101773.80;1656142;86;25741;-63
2021/03/03 06:37:03;;;;;;;53.35;21.87;;;;;;;-0.31;81.95;101775.36;1656220;86;25675;-63
2021/03/03 06:39:36;;;;;;;58.92;22.67;;;;;;;-0.28;81.61;101774.96;1656250;86;26331;-63
2021/03/03 06:42:06;;;;;;;53.55;21.30;;;;;;;-0.28;81.36;101782.13;1656363;86;25679;-64
2021/03/03 06:44:49;;;;;;;63.68;22.48;;;;;;;-0.32;81.37;101772.41;1634501;86;25997;-63
2021/03/03 06:47:18;;;;;;;58.98;23.50;;;;;;;-0.34;81.25;101773.13;1661511;86;25758;-63
2021/03/03 06:49:47;;;;;;;57.63;21.47;;;;;;;-0.34;81.26;101776.27;1673834;85;25826;-64
2021/03/03 06:52:14;;;;;;;66.30;23.75;;;;;;;-0.33;81.58;101765.95;1673494;85;25647;-62
2021/03/03 06:54:42;;;;;;;58.00;21.85;;;;;;;-0.32;81.67;101772.89;1673644;85;25845;-62
2021/03/03 06:57:13;;;;;;;61.02;22.98;;;;;;;-0.33;81.56;101767.28;1673609;85;25791;-62
2021/03/03 06:59:44;;;;;;;57.03;21.17;;;;;;;-0.32;81.75;101764.43;1673466;85;25743;-62
2021/03/03 07:02:14;;;;;;;52.73;21.75;;;;;;;-0.29;81.78;101765.36;1673556;85;25833;-63
2021/03/03 07:04:52;;;;;;;63.13;22.70;;;;;;;-0.33;81.54;101767.28;1673759;85;25675;-62
2021/03/03 07:07:20;;;;;;;59.75;23.75;;;;;;;-0.32;81.70;101767.58;1672431;85;25707;-63
2021/03/03 07:12:31;;;;;;;59.67;23.67;;;;;;;-0.22;82.02;101758.73;1846601;77;34745;-63
2021/03/03 07:15:03;;;;;;;56.08;23.07;;;;;;;-0.26;82.01;101760.95;1791438;80;25666;-62
2021/03/03 07:17:39;;;;;;;51.83;20.57;;;;;;;-0.24;82.19;101756.77;1791252;80;26429;-62
2021/03/03 07:20:14;;;;;;;48.60;19.52;;;;;;;-0.24;81.97;101758.09;1791220;80;25807;-63
2021/03/03 07:22:51;;;;;;;44.70;18.87;;;;;;;-0.25;81.85;101753.30;1791214;80;25697;-61
2021/03/03 07:25:20;;;;;;;48.42;18.87;;;;;;;-0.28;81.51;101743.05;1791183;80;25708;-63
2021/03/03 07:27:48;;;;;;;51.97;20.77;;;;;;;-0.29;81.64;101748.56;1791603;80;25756;-62
2021/03/03 07:30:22;;;;;;;49.35;19.55;;;;;;;-0.26;81.80;101753.49;1790752;80;26341;-63
2021/03/03 07:32:50;;;;;;;46.85;20.92;;;;;;;-0.22;82.16;101754.22;1791165;80;25600;-64
2021/03/03 07:35:17;;;;;;;51.37;19.30;;;;;;;-0.20;82.02;101752.17;1791216;80;25660;-62
2021/03/03 07:37:54;;;;;;;51.95;20.90;;;;;;;-0.16;81.99;101745.95;1791187;80;25748;-63
2021/03/03 07:40:30;;;;;;;44.15;18.57;;;;;;;-0.15;81.90;101751.58;1791215;80;25675;-63
2021/03/03 07:43:01;;;;;;;48.58;19.02;;;;;;;-0.08;82.10;101747.61;1791187;80;26863;-64
2021/03/03 07:45:42;;;;;;;53.80;21.17;;;;;;;-0.09;81.71;101741.45;1790859;80;26338;-64
2021/03/03 07:48:11;;;;;;;46.65;20.32;;;;;;;-0.08;81.78;101749.75;1791124;80;25782;-64
2021/03/03 07:50:41;;;;;;;50.73;20.80;;;;;;;-0.05;81.64;101755.16;1791192;80;26294;-64
2021/03/03 07:53:10;;;;;;;53.23;21.45;;;;;;;-0.05;81.79;101753.83;1791281;80;25665;-63
2021/03/03 07:55:38;;;;;;;48.58;19.25;;;;;;;-0.06;81.83;101749.03;1791319;80;25708;-65
2021/03/03 07:58:08;;;;;;;49.40;19.45;;;;;;;0.03;81.83;101754.16;1791116;80;26319;-65
2021/03/03 08:00:37;;;;;;;51.35;19.87;;;;;;;0.04;81.78;101759.28;1790653;80;25769;-65
2021/03/03 08:03:05;;;;;;;55.90;22.02;;;;;;;0.04;81.57;101756.63;1790907;80;25743;-63
2021/03/03 08:05:36;;;;;;;57.05;20.92;;;;;;;0.09;81.89;101758.69;1791273;80;25818;-64
2021/03/03 08:08:23;;;;;;;52.50;21.93;;;;;;;0.16;82.31;101758.17;1791170;80;25979;-64
2021/03/03 08:10:59;;;;;;;53.78;21.25;;;;;;;0.16;82.07;101752.85;1791004;79;25708;-64
2021/03/03 08:13:34;;;;;;;53.65;21.75;;;;;;;0.20;82.19;101746.09;1791090;80;25959;-63
2021/03/03 08:16:05;;;;;;;54.53;22.40;;;;;;;0.26;82.12;101748.47;1791231;80;26340;-63
2021/03/03 08:18:56;;;;;;;48.52;20.43;;;;;;;0.29;82.05;101744.88;1791290;80;25648;-64
2021/03/03 08:21:28;;;;;;;53.60;21.60;;;;;;;0.37;82.30;101742.50;1791128;80;26433;-62
2021/03/03 08:24:01;;;;;;;56.53;22.27;;;;;;;0.44;82.21;101739.33;1790542;80;25682;-62
2021/03/03 08:26:34;;;;;;;63.85;21.93;;;;;;;0.48;82.04;101735.77;1789373;80;25655;-63
2021/03/03 08:29:19;;;;;;;61.00;23.10;;;;;;;0.57;82.21;101735.03;1790629;80;25704;-62
2021/03/03 08:31:46;;;;;;;57.73;23.45;;;;;;;0.59;81.99;101735.13;1778674;80;25817;-63
2021/03/03 08:34:15;;;;;;;62.33;24.07;;;;;;;0.66;81.98;101733.26;1790535;80;25698;-63
2021/03/03 08:36:48;;;;;;;59.53;23.27;;;;;;;0.64;81.62;101729.18;1790603;80;25607;-64
2021/03/03 08:39:21;;;;;;;59.58;23.65;;;;;;;0.63;81.65;101719.55;1789818;80;26247;-63
2021/03/03 08:41:47;;;;;;;63.92;24.72;;;;;;;0.63;81.72;101717.72;1790506;80;25712;-64
2021/03/03 08:44:18;;;;;;;67.35;24.07;;;;;;;0.68;82.02;101716.58;1790807;80;25633;-63
2021/03/03 08:46:48;;;;;;;66.28;26.27;;;;;;;0.72;82.12;101712.98;1790621;80;25696;-63
2021/03/03 08:49:23;;;;;;;72.92;25.77;;;;;;;0.79;82.18;101713.78;1790545;80;25760;-64
2021/03/03 08:51:50;;;;;;;59.60;23.90;;;;;;;0.85;82.19;101708.97;1790576;80;25729;-63
2021/03/03 08:54:20;;;;;;;56.70;23.70;;;;;;;0.85;81.83;101703.64;1790659;80;25696;-64
2021/03/03 08:56:54;;;;;;;57.48;23.57;;;;;;;0.85;81.60;101706.79;1790729;80;25586;-63
2021/03/03 08:59:41;;;;;;;60.00;24.80;;;;;;;0.82;81.36;101698.72;1790664;80;25772;-62
2021/03/03 09:02:16;;;;;;;64.77;23.45;;;;;;;0.79;81.01;101695.66;1790539;80;25666;-62
2021/03/03 09:04:51;;;;;;;65.65;25.00;;;;;;;0.71;81.01;101696.17;1790618;80;25896;-64
2021/03/03 09:07:29;;;;;;;63.02;24.23;;;;;;;0.70;81.30;101696.41;1790562;79;25712;-66
2021/03/03 09:10:06;;;;;;;68.37;24.87;;;;;;;0.70;81.31;101693.22;1790095;80;25733;-64
2021/03/03 09:12:40;;;;;;;66.05;24.30;;;;;;;0.72;81.46;101689.83;1790933;80;26222;-65
2021/03/03 09:15:11;;;;;;;70.10;25.90;;;;;;;0.80;81.82;101681.30;1791169;80;26229;-65
2021/03/03 09:17:38;;;;;;;67.90;26.80;;;;;;;0.82;81.73;101685.89;1791316;80;25649;-64
2021/03/03 09:20:10;;;;;;;66.17;26.70;;;;;;;0.86;81.78;101676.47;1790859;80;25659;-65
2021/03/03 09:22:43;;;;;;;73.12;27.32;;;;;;;0.88;81.66;101680.55;1791200;80;25729;-65
2021/03/03 09:25:17;;;;;;;69.85;26.60;;;;;;;0.92;81.81;101667.13;1790689;80;25772;-64
2021/03/03 09:28:01;;;;;;;72.25;27.07;;;;;;;1.04;81.93;101674.44;1790955;80;25585;-65
2021/03/03 09:30:37;;;;;;;71.92;27.65;;;;;;;1.07;81.77;101672.69;1791005;80;25699;-64
2021/03/03 09:33:09;;;;;;;72.70;27.35;;;;;;;1.04;81.32;101665.95;1790884;80;25872;-65
2021/03/03 09:35:36;;;;;;;66.50;25.82;;;;;;;1.04;81.31;101670.45;1791178;80;25826;-62
2021/03/03 09:38:03;;;;;;;69.70;24.60;;;;;;;1.03;81.24;101662.98;1766402;80;25946;-62
2021/03/03 09:40:33;;;;;;;72.90;27.98;;;;;;;1.01;81.09;101666.38;1781493;80;25701;-62
2021/03/03 09:43:02;;;;;;;73.60;28.05;;;;;;;1.01;81.21;101672.22;1759737;81;25903;-63
2021/03/03 09:45:30;;;;;;;75.37;26.93;;;;;;;1.01;81.46;101666.38;1759993;81;25647;-61
2021/03/03 09:48:20;;;;;;;74.60;27.95;;;;;;;1.04;81.41;101659.30;1759804;81;25633;-62
2021/03/03 09:50:47;;;;;;;82.72;29.25;;;;;;;1.09;81.44;101650.15;1671333;85;25807;-62
2021/03/03 09:53:15;;;;;;;82.33;30.45;;;;;;;1.16;81.45;101648.78;1671823;85;25603;-62
2021/03/03 09:55:43;;;;;;;83.92;30.30;;;;;;;1.19;81.50;101647.03;1671877;85;25602;-62
2021/03/03 09:58:11;;;;;;;80.83;29.75;;;;;;;1.26;81.48;101656.30;1639270;87;25645;-61
2021/03/03 10:00:40;;;;;;;73.65;27.85;;;;;;;1.27;81.41;101652.09;1639293;87;26343;-62
2021/03/03 10:03:13;;;;;;;74.72;28.62;;;;;;;1.27;81.23;101651.28;1639463;87;26663;-63
2021/03/03 10:05:43;;;;;;;74.45;28.80;;;;;;;1.25;81.06;101641.36;1638876;87;25918;-64
2021/03/03 10:08:13;;;;;;;72.50;28.73;;;;;;;1.25;81.15;101642.69;1638794;87;25798;-64
2021/03/03 10:10:47;;;;;;;77.35;29.57;;;;;;;1.33;81.38;101641.61;1639265;87;25667;-64
2021/03/03 10:13:25;;;;;;;68.25;26.95;;;;;;;1.39;81.52;101632.23;1638755;86;25671;-65
2021/03/03 10:15:52;;;;;;;80.00;30.72;;;;;;;1.51;81.57;101634.23;1639078;86;25802;-62
2021/03/03 10:18:21;;;;;;;72.95;30.45;;;;;;;1.57;81.36;101635.52;1611465;88;26040;-62
2021/03/03 10:20:56;;;;;;;75.22;30.02;;;;;;;1.59;81.14;101636.11;1625661;87;25847;-63
2021/03/03 10:23:30;;;;;;;78.47;30.15;;;;;;;1.61;81.07;101630.56;1661893;86;26461;-63
2021/03/03 10:26:08;;;;;;;77.82;31.23;;;;;;;1.72;81.39;101629.04;1661609;86;25815;-64
2021/03/03 10:28:38;;;;;;;85.97;31.90;;;;;;;1.79;81.30;101631.16;1662021;86;25911;-61
2021/03/03 10:31:05;;;;;;;;;;;;;;;1.78;80.98;101622.84;1664376;86;25727;-62
2021/03/03 10:33:39;;;;;;;70.30;29.95;;;;;;;1.85;80.98;101628.41;1662221;85;25725;-62
2021/03/03 10:36:19;;;;;;;86.32;32.63;;;;;;;1.81;80.63;101623.75;1661529;86;25787;-63
2021/03/03 10:38:56;;;;;;;78.83;31.42;;;;;;;1.76;80.49;101616.39;1662276;86;25739;-63
2021/03/03 10:41:31;;;;;;;68.83;28.45;;;;;;;1.81;80.88;101617.89;1658899;86;26080;-64
2021/03/03 10:43:58;;;;;;;70.17;29.70;;;;;;;1.84;80.75;101616.13;1609686;88;26294;-65
2021/03/03 10:46:26;;;;;;;74.37;30.23;;;;;;;1.92;80.92;101611.55;1638724;87;25797;-62
2021/03/03 10:48:56;;;;;;;66.80;28.02;;;;;;;1.93;80.51;101607.84;1639912;87;25764;-63
2021/03/03 10:51:38;;;;;;;68.87;30.12;;;;;;;1.94;80.42;101604.13;1647568;87;25531;-62
2021/03/03 10:54:09;;;;;;;74.35;29.75;;;;;;;1.98;80.68;101592.00;1618491;88;25881;-63
2021/03/03 10:56:40;;;;;;;70.10;30.48;;;;;;;2.04;80.70;101594.61;1647501;85;25670;-62
2021/03/03 10:59:30;;;;;;;74.35;30.57;;;;;;;2.09;80.52;101593.12;1627034;87;25763;-62
2021/03/03 11:01:58;;;;;;;74.50;29.50;;;;;;;2.11;80.49;101591.88;1617242;88;25699;-62
2021/03/03 11:04:46;;;;;;;72.53;29.98;;;;;;;2.17;80.81;101594.98;1617476;88;25740;-63
2021/03/03 11:07:15;;;;;;;70.47;30.32;;;;;;;2.23;80.47;101586.09;1617456;88;26552;-64
2021/03/03 11:09:52;;;;;;;73.80;29.15;;;;;;;2.34;80.80;101584.53;1617179;87;25788;-65
2021/03/03 11:12:27;;;;;;;66.82;29.25;;;;;;;2.42;80.56;101582.91;1617135;88;25826;-63
2021/03/03 11:14:54;;;;;;;70.35;30.68;;;;;;;2.43;80.11;101575.70;1617090;88;26024;-64
2021/03/03 11:17:21;;;;;;;72.27;30.10;;;;;;;2.46;79.95;101567.78;1617204;88;25701;-66
2021/03/03 11:19:48;;;;;;;68.22;29.20;;;;;;;2.50;80.03;101572.44;1616873;88;27123;-64
2021/03/03 11:22:14;;;;;;;69.82;29.92;;;;;;;2.56;79.86;101557.39;1617126;88;25796;-63
2021/03/03 11:24:42;;;;;;;71.28;31.25;;;;;;;2.59;80.00;101552.41;1617206;88;25711;-63
2021/03/03 11:27:08;;;;;;;75.78;29.48;;;;;;;2.68;79.93;101546.77;1616419;88;26067;-62
2021/03/03 11:29:36;;;;;;;68.95;28.23;;;;;;;2.75;79.78;101548.30;1617219;88;25742;-63
2021/03/03 11:32:05;;;;;;;67.58;29.12;;;;;;;2.80;79.83;101539.08;1619076;87;26017;-61
2021/03/03 11:34:32;;;;;;;;;;;;;;;2.82;79.36;101540.72;1647382;87;25978;-63
2021/03/03 11:37:00;;;;;;;68.42;29.72;;;;;;;2.86;79.33;101541.39;1617135;88;26565;-63
2021/03/03 11:39:27;;;;;;;62.08;29.27;;;;;;;2.86;79.15;101532.03;1646266;87;25798;-62
2021/03/03 11:41:54;;;;;;;69.10;29.60;;;;;;;2.95;79.43;101523.97;1647142;87;25622;-65
2021/03/03 11:44:21;;;;;;;66.95;29.02;;;;;;;2.98;79.13;101518.70;1619172;88;26072;-63
2021/03/03 11:46:48;;;;;;;67.25;28.92;;;;;;;3.01;78.87;101514.75;1667496;85;25758;-63
2021/03/03 11:49:15;;;;;;;64.00;29.05;;;;;;;3.08;79.13;101504.77;1665609;85;26347;-63
2021/03/03 11:51:42;;;;;;;70.78;30.48;;;;;;;3.20;79.35;101506.12;1650533;86;25983;-64
2021/03/03 11:54:09;;;;;;;62.40;28.60;;;;;;;3.29;79.09;101495.41;1636749;87;25712;-63
2021/03/03 11:56:41;;;;;;;69.75;31.23;;;;;;;3.41;79.08;101494.09;1636208;87;25740;-64
2021/03/03 11:59:09;;;;;;;71.92;32.35;;;;;;;3.55;79.12;101495.48;1650658;86;25700;-65
2021/03/03 12:01:36;;;;;;;74.95;32.70;;;;;;;3.62;78.43;101490.81;1637038;87;25661;-64
2021/03/03 12:04:04;;;;;;;67.75;32.67;;;;;;;3.67;78.07;101483.44;1650816;86;25741;-63
2021/03/03 12:06:31;;;;;;;73.00;30.60;;;;;;;3.71;78.02;101481.91;1637189;87;25675;-63
2021/03/03 12:08:58;;;;;;;72.40;31.45;;;;;;;3.87;78.81;101476.39;1650771;86;26258;-64
2021/03/03 12:11:25;;;;;;;67.65;31.00;;;;;;;3.97;78.50;101478.45;1636573;87;25622;-63
2021/03/03 12:13:51;;;;;;;67.15;30.08;;;;;;;3.99;77.83;101469.14;1636936;87;25644;-63
2021/03/03 12:16:18;;;;;;;68.67;31.52;;;;;;;4.01;77.81;101460.34;1637189;87;25820;-65
2021/03/03 12:18:45;;;;;;;67.65;31.00;;;;;;;4.11;78.09;101462.42;1636410;87;25678;-64
2021/03/03 12:21:13;;;;;;;67.08;30.48;;;;;;;4.17;77.52;101468.19;1636699;87;25753;-62
2021/03/03 12:23:40;;;;;;;66.72;30.75;;;;;;;4.09;76.85;101462.66;1637001;87;25766;-62
2021/03/03 12:26:06;;;;;;;66.97;31.42;;;;;;;4.07;77.30;101455.39;1637133;87;25765;-65
2021/03/03 12:28:35;;;;;;;70.37;30.62;;;;;;;4.28;78.08;101449.11;1647672;86;25782;-62
2021/03/03 12:31:02;;;;;;;67.22;31.90;;;;;;;4.34;77.05;101444.11;1630648;87;25872;-63
2021/03/03 12:33:30;;;;;;;64.58;30.80;;;;;;;4.31;76.74;101439.26;1618051;88;25816;-63
2021/03/03 12:35:57;;;;;;;63.63;30.25;;;;;;;4.33;76.71;101432.33;1618173;88;25769;-63
2021/03/03 12:38:24;;;;;;;66.95;31.80;;;;;;;4.34;76.42;101430.72;1618145;88;25626;-62
2021/03/03 12:40:50;;;;;;;65.03;31.42;;;;;;;4.36;76.72;101420.60;1617961;88;25716;-63
2021/03/03 12:43:17;;;;;;;64.42;30.55;;;;;;;4.42;77.02;101420.97;1650805;86;25720;-62
2021/03/03 12:45:44;;;;;;;65.80;30.43;;;;;;;4.45;76.46;101419.15;1650720;86;26264;-65
2021/03/03 12:48:12;;;;;;;63.28;30.62;;;;;;;4.47;76.47;101414.36;1650585;86;25994;-64
2021/03/03 12:50:39;;;;;;;66.10;29.23;;;;;;;4.57;76.86;101420.97;1656851;86;25773;-63
2021/03/03 12:53:07;;;;;;;69.92;31.93;;;;;;;4.68;77.02;101420.08;1645734;86;25809;-64
2021/03/03 12:55:34;;;;;;;69.27;32.08;;;;;;;4.71;76.33;101426.30;1661784;86;25799;-63
2021/03/03 12:58:01;;;;;;;69.15;33.25;;;;;;;4.74;75.93;101421.80;1645687;87;25864;-60
2021/03/03 13:00:29;;;;;;;72.30;31.65;;;;;;;4.77;76.03;101414.62;1661317;86;25634;-61
2021/03/03 13:02:57;;;;;;;65.80;31.23;;;;;;;5.04;77.14;101411.31;1646218;86;25673;-60
2021/03/03 13:05:23;;;;;;;66.47;32.30;;;;;;;5.48;77.75;101407.91;1662416;86;25985;-61
2021/03/03 13:07:50;;;;;;;64.55;31.55;;;;;;;5.67;76.00;101398.52;1645644;86;25697;-63
2021/03/03 13:10:17;;;;;;;69.20;33.40;;;;;;;5.84;75.85;101387.73;1662223;86;25739;-62
2021/03/03 13:12:44;;;;;;;71.77;34.95;;;;;;;6.10;76.33;101384.02;1646058;87;25723;-63
2021/03/03 13:15:12;;;;;;;65.78;32.45;;;;;;;6.38;75.74;101378.11;1661666;86;25753;-61
2021/03/03 13:17:40;;;;;;;63.35;30.25;;;;;;;6.60;74.61;101374.82;1646658;87;25402;-62
2021/03/03 13:20:10;;;;;;;66.53;33.55;;;;;;;6.94;75.38;101373.75;1661536;86;26383;-63
2021/03/03 13:22:38;;;;;;;67.58;34.40;;;;;;;7.25;74.30;101374.76;1647299;87;25739;-61
2021/03/03 13:25:07;;;;;;;66.10;33.23;;;;;;;7.61;74.06;101362.83;1663434;86;25708;-60
2021/03/03 13:27:38;;;;;;;65.50;32.98;;;;;;;7.81;73.33;101353.48;1647454;87;25678;-60
2021/03/03 13:30:07;;;;;;;71.87;35.48;;;;;;;7.98;71.88;101352.47;1663113;86;25690;-60
2021/03/03 13:32:34;;;;;;;67.25;34.15;;;;;;;7.77;69.70;101348.91;1647386;87;32423;-60
2021/03/03 13:35:02;;;;;;;65.52;33.98;;;;;;;7.66;70.79;101339.45;1663437;86;25827;-65
2021/03/03 13:37:30;;;;;;;68.65;35.75;;;;;;;7.82;71.31;101342.99;1647160;87;25617;-59
2021/03/03 13:39:57;;;;;;;70.12;34.53;;;;;;;8.00;70.48;101334.14;1663524;86;25573;-58
2021/03/03 13:42:28;;;;;;;64.17;33.78;;;;;;;8.31;70.62;101338.23;1647245;87;25689;-59
2021/03/03 13:44:57;;;;;;;68.02;35.68;;;;;;;8.64;70.18;101334.80;1663573;86;25434;-59
2021/03/03 13:47:24;;;;;;;69.60;36.50;;;;;;;8.96;69.40;101343.39;1646990;86;26006;-60
2021/03/03 13:49:52;;;;;;;66.62;35.00;;;;;;;8.96;67.71;101326.41;1643809;87;25670;-59
2021/03/03 13:52:21;;;;;;;69.95;35.85;;;;;;;9.12;67.42;101329.32;1625904;87;25588;-60
2021/03/03 13:54:48;;;;;;;69.47;36.40;;;;;;;9.42;67.82;101326.83;1625946;88;25368;-60
2021/03/03 13:57:15;;;;;;;63.92;35.25;;;;;;;9.70;67.60;101320.77;1626080;87;25547;-59
2021/03/03 13:59:44;;;;;;;65.80;35.23;;;;;;;9.85;65.14;101317.71;1624710;87;25805;-60
2021/03/03 14:02:11;;;;;;;64.72;35.68;;;;;;;9.85;65.17;101306.34;1626086;87;25651;-61
2021/03/03 14:04:39;;;;;;;63.15;35.55;;;;;;;9.82;64.82;101302.05;1625973;87;25773;-60
2021/03/03 14:07:08;;;;;;;65.65;37.23;;;;;;;9.84;64.55;101296.64;1625925;87;25667;-60
2021/03/03 14:09:36;;;;;;;63.75;34.92;;;;;;;9.91;64.35;101287.67;1625939;87;25712;-59
2021/03/03 14:12:04;;;;;;;70.85;36.23;;;;;;;9.94;64.22;101286.30;1625929;88;26192;-59
2021/03/03 14:14:31;;;;;;;65.83;36.23;;;;;;;9.91;63.21;101282.27;1626185;88;25604;-59
2021/03/03 14:16:59;;;;;;;64.22;35.23;;;;;;;9.89;63.51;101274.99;1640925;86;25650;-60
2021/03/03 14:19:26;;;;;;;63.95;36.20;;;;;;;9.84;62.86;101272.33;1604374;89;25572;-62
2021/03/03 14:21:53;;;;;;;66.28;36.13;;;;;;;9.64;62.57;101267.84;1604480;89;25378;-61
2021/03/03 14:24:21;;;;;;;64.40;35.15;;;;;;;9.57;62.75;101267.34;1603938;89;26219;-61
2021/03/03 14:26:52;;;;;;;64.45;37.25;;;;;;;9.58;63.21;101258.69;1604492;89;25401;-59
2021/03/03 14:29:20;;;;;;;61.30;35.35;;;;;;;9.60;62.76;101254.61;1604342;89;25444;-60
2021/03/03 14:31:48;;;;;;;66.65;37.00;;;;;;;9.49;62.76;101253.06;1604664;88;25387;-62
2021/03/03 14:34:16;;;;;;;69.10;38.28;;;;;;;9.38;62.80;101246.92;1604582;89;25579;-63
2021/03/03 14:36:44;;;;;;;64.85;34.73;;;;;;;9.25;62.47;101242.91;1604459;89;25806;-61
2021/03/03 14:39:12;;;;;;;64.62;36.65;;;;;;;9.23;63.38;101234.81;1604415;89;25598;-61
2021/03/03 14:41:40;;;;;;;63.98;35.75;;;;;;;9.21;62.90;101225.66;1604415;88;25644;-60
2021/03/03 14:44:08;;;;;;;70.87;37.88;;;;;;;9.10;62.56;101224.08;1604349;89;25605;-59
2021/03/03 14:46:37;;;;;;;65.15;35.73;;;;;;;8.95;62.68;101224.38;1621942;87;25623;-59
2021/03/03 14:49:05;;;;;;;65.05;36.20;;;;;;;8.81;62.97;101217.97;1619166;88;26060;-60
2021/03/03 14:51:33;;;;;;;71.62;37.88;;;;;;;8.77;63.25;101211.52;1648399;86;25576;-61
2021/03/03 14:54:02;;;;;;;64.95;36.42;;;;;;;8.68;63.35;101206.40;1646970;87;25715;-60
2021/03/03 14:56:34;;;;;;;67.75;35.70;;;;;;;8.54;63.14;101202.12;1647147;86;25642;-61
2021/03/03 14:58:59;;;;;;;68.22;36.42;;;;;;;8.38;63.58;101203.46;1647646;87;25671;-61
2021/03/03 15:01:27;;;;;;;67.27;35.65;;;;;;;8.34;64.17;101189.44;1648957;87;26190;-60
2021/03/03 15:03:54;;;;;;;67.25;36.60;;;;;;;8.34;63.70;101190.27;1646996;87;25720;-61
2021/03/03 15:06:21;;;;;;;66.37;35.63;;;;;;;8.24;64.16;101184.89;1647010;87;25613;-60
2021/03/03 15:08:48;;;;;;;70.40;36.35;;;;;;;8.14;64.34;101180.31;1647034;87;25427;-61
2021/03/03 15:11:15;;;;;;;69.32;36.42;;;;;;;8.13;64.60;101175.98;1646987;87;25378;-60
2021/03/03 15:13:42;;;;;;;68.85;36.58;;;;;;;8.08;64.82;101172.50;1647015;87;25746;-60
2021/03/03 15:16:10;;;;;;;68.92;35.80;;;;;;;8.04;64.94;101174.38;1646971;87;25542;-60
2021/03/03 15:18:38;;;;;;;69.77;36.98;;;;;;;8.00;64.83;101173.83;1648684;86;25665;-67
2021/03/03 15:21:05;;;;;;;68.62;36.83;;;;;;;7.90;64.65;101163.89;1618978;88;25367;-64
2021/03/03 15:23:32;;;;;;;66.53;35.75;;;;;;;7.77;64.75;101155.80;1649030;85;25334;-64
2021/03/03 15:25:59;;;;;;;72.20;38.23;;;;;;;7.62;64.77;101149.84;1648734;87;26389;-66
2021/03/03 15:28:26;;;;;;;72.82;37.85;;;;;;;7.47;64.91;101149.31;1648767;87;25515;-67
2021/03/03 15:30:53;;;;;;;70.17;36.17;;;;;;;7.29;65.06;101139.84;1648905;87;25764;-67
2021/03/03 15:33:20;;;;;;;71.47;35.75;;;;;;;7.17;65.33;101131.73;1649027;87;25415;-63
2021/03/03 15:35:49;;;;;;;72.32;37.40;;;;;;;7.02;65.55;101129.28;1649097;87;25989;-63
2021/03/03 15:38:16;;;;;;;69.55;37.70;;;;;;;6.85;65.75;101124.66;1649126;87;27230;-66
2021/03/03 15:40:42;;;;;;;71.40;36.83;;;;;;;6.65;65.98;101119.45;1648849;87;25369;-65
2021/03/03 15:43:09;;;;;;;74.03;38.48;;;;;;;6.50;66.34;101117.53;1648966;87;25549;-63
2021/03/03 15:45:37;;;;;;;81.60;38.95;;;;;;;6.37;66.62;101112.61;1649028;87;25709;-63
2021/03/03 15:48:05;;;;;;;79.53;38.53;;;;;;;6.22;66.81;101110.64;1649113;87;25322;-62
2021/03/03 15:50:33;;;;;;;73.17;38.92;;;;;;;6.07;67.15;101103.28;1647997;86;25799;-65
2021/03/03 15:52:59;;;;;;;79.30;38.05;;;;;;;5.96;67.41;101102.96;1636334;87;25687;-58
2021/03/03 15:55:26;;;;;;;72.60;35.92;;;;;;;5.84;67.74;101102.28;1636510;87;25653;-60
2021/03/03 15:57:53;;;;;;;67.32;35.28;;;;;;;5.74;67.87;101098.47;1636555;87;25444;-58
2021/03/03 16:00:21;;;;;;;76.10;36.85;;;;;;;5.65;67.85;101093.81;1636286;87;25652;-64
2021/03/03 16:02:48;;;;;;;79.55;37.90;;;;;;;5.53;68.14;101091.30;1639655;86;27230;-62
2021/03/03 16:05:15;;;;;;;78.30;37.38;;;;;;;5.43;68.11;101090.67;1640428;86;25685;-64
2021/03/03 16:07:43;;;;;;;73.57;36.00;;;;;;;5.33;68.53;101073.97;1648280;86;25737;-64
2021/03/03 16:10:12;;;;;;;80.20;40.08;;;;;;;5.21;68.35;101071.45;1647037;86;25369;-65
2021/03/03 16:12:39;;;;;;;82.50;39.83;;;;;;;5.09;68.66;101069.97;1635107;87;25538;-63